Time;durP1;ratioP1;P1;durP2;ratioP2;P2;SDS_P1;SDS_P2;PMS_P1;PMS_P2;Temp;Humidity;BMP_temperature;BMP_pressure;BME280_temperature;BME280_humidity;BME280_pressure;Samples;Min_cycle;Max_cycle;Signal;HPM_P1;HPM_P2
2023/11/29 00:01:48;;;;;;;85.62;36.68;;;;;;;-3.77;85.02;98994.73;1728828;82;25742;-48
2023/11/29 00:04:15;;;;;;;84.67;36.28;;;;;;;-3.80;84.96;98993.92;1754923;81;27925;-48
2023/11/29 00:06:41;;;;;;;83.45;35.65;;;;;;;-3.82;85.07;99003.91;1729080;82;25671;-48
2023/11/29 00:09:08;;;;;;;88.58;36.33;;;;;;;-3.81;85.15;99001.56;1756274;81;25729;-52
2023/11/29 00:11:35;;;;;;;81.70;34.85;;;;;;;-3.82;85.07;99011.05;1729464;82;25870;-48
2023/11/29 00:14:01;;;;;;;78.57;34.65;;;;;;;-3.83;85.05;99004.98;1755853;81;25628;-49
2023/11/29 00:16:28;;;;;;;83.85;34.90;;;;;;;-3.85;85.22;99003.08;1715107;82;27050;-50
2023/11/29 00:18:56;;;;;;;80.60;32.25;;;;;;;-3.84;85.17;99007.33;1756913;81;25539;-47
2023/11/29 00:21:23;;;;;;;76.42;32.93;;;;;;;-3.85;85.12;99008.89;1730295;82;25614;-48
2023/11/29 00:23:51;;;;;;;76.15;33.15;;;;;;;-3.87;85.24;99010.45;1757145;81;26486;-50
2023/11/29 00:26:22;;;;;;;79.60;33.35;;;;;;;-3.90;85.19;99012.27;1730330;81;25567;-48
2023/11/29 00:28:46;;;;;;;79.60;31.20;;;;;;;-3.92;85.28;99013.56;1756297;81;27536;-49
2023/11/29 00:31:13;;;;;;;76.35;30.95;;;;;;;-3.94;85.34;99018.56;1730228;82;25379;-49
2023/11/29 00:33:42;;;;;;;77.15;32.13;;;;;;;-3.96;85.38;99019.86;1757006;81;25562;-49
2023/11/29 00:36:10;;;;;;;78.15;32.88;;;;;;;-3.96;85.40;99022.50;1730416;82;25968;-50
2023/11/29 00:38:37;;;;;;;82.70;31.97;;;;;;;-3.99;85.45;99020.34;1757018;81;25397;-48
2023/11/29 00:41:06;;;;;;;80.87;29.95;;;;;;;-4.00;85.56;99038.05;1730313;82;27336;-49
2023/11/29 00:43:35;;;;;;;78.55;29.57;;;;;;;-4.02;85.68;99029.58;1757098;81;25794;-48
2023/11/29 00:46:05;;;;;;;81.70;30.45;;;;;;;-4.03;85.77;99034.56;1730321;81;25512;-50
2023/11/29 00:48:33;;;;;;;;;;;;;;;-4.03;85.94;99031.14;1759624;81;25409;-50
2023/11/29 00:51:02;;;;;;;74.15;28.98;;;;;;;-4.03;86.12;99037.20;1757064;81;25542;-50
2023/11/29 00:53:30;;;;;;;85.20;32.65;;;;;;;-4.03;86.30;99037.20;1712170;82;28045;-48
2023/11/29 00:55:57;;;;;;;58.23;24.25;;;;;;;-4.01;86.51;99034.33;1727057;83;25612;-49
2023/11/29 00:58:26;;;;;;;75.83;29.45;;;;;;;-4.00;86.70;99031.94;1727165;83;25553;-49
2023/11/29 01:00:53;;;;;;;81.67;31.82;;;;;;;-3.98;86.83;99035.16;1727104;83;26076;-48
2023/11/29 01:03:21;;;;;;;64.22;27.48;;;;;;;-3.96;86.87;99035.72;1727302;82;25455;-50
2023/11/29 01:05:50;;;;;;;75.62;27.13;;;;;;;-3.88;86.89;99057.76;1727138;83;28354;-49
2023/11/29 01:08:17;;;;;;;70.65;27.62;;;;;;;-3.96;86.82;99044.96;1727273;83;25558;-48
2023/11/29 01:10:45;;;;;;;80.28;28.65;;;;;;;-3.95;86.86;99044.72;1727126;83;25573;-49
2023/11/29 01:13:14;;;;;;;69.45;26.00;;;;;;;-3.93;86.90;99048.44;1727390;83;25397;-51
2023/11/29 01:15:43;;;;;;;66.97;27.30;;;;;;;-3.92;86.88;99047.91;1727545;83;25556;-49
2023/11/29 01:18:09;;;;;;;52.20;19.05;;;;;;;-3.91;86.95;99053.48;1727313;83;27334;-50
2023/11/29 01:20:38;;;;;;;70.65;25.70;;;;;;;-3.90;87.02;99053.22;1726963;83;27096;-48
2023/11/29 01:23:05;;;;;;;75.35;27.40;;;;;;;-3.88;87.02;99061.72;1727308;83;25575;-48
2023/11/29 01:25:34;;;;;;;62.17;24.10;;;;;;;-3.87;86.91;99055.91;1727117;82;25384;-50
2023/11/29 01:28:06;;;;;;;60.52;24.30;;;;;;;-3.89;86.71;99061.96;1727175;83;25213;-47
2023/11/29 01:30:34;;;;;;;54.25;21.40;;;;;;;-3.91;86.56;99060.88;1727196;83;27886;-48
2023/11/29 01:33:03;;;;;;;58.70;21.55;;;;;;;-3.93;86.53;99069.58;1727125;83;25846;-48
2023/11/29 01:35:29;;;;;;;46.18;20.43;;;;;;;-3.96;86.53;99069.53;1727255;83;25481;-49
2023/11/29 01:37:59;;;;;;;52.25;21.12;;;;;;;-3.96;86.59;99069.53;1701556;83;25692;-48
2023/11/29 01:40:25;;;;;;;52.90;21.00;;;;;;;-3.95;86.59;99075.60;1727267;83;25439;-49
2023/11/29 01:42:52;;;;;;;54.55;21.82;;;;;;;-3.95;86.65;99070.31;1727150;83;27909;-48
2023/11/29 01:45:21;;;;;;;52.93;21.90;;;;;;;-3.96;86.54;99073.48;1727044;83;25334;-49
2023/11/29 01:47:51;;;;;;;57.90;23.15;;;;;;;-4.00;86.63;99073.71;1727310;83;25392;-47
2023/11/29 01:50:25;;;;;;;50.92;21.42;;;;;;;-4.00;86.73;99071.57;1727122;83;25633;-48
2023/11/29 01:52:56;;;;;;;53.08;21.35;;;;;;;-3.99;86.89;99078.47;1727283;83;25561;-49
2023/11/29 01:55:26;;;;;;;55.35;25.00;;;;;;;-3.98;87.09;99076.11;1727172;83;27979;-48
2023/11/29 01:57:56;;;;;;;55.08;23.87;;;;;;;-3.95;87.30;99079.56;1727188;83;25396;-48
2023/11/29 02:00:26;;;;;;;57.50;22.73;;;;;;;-3.93;87.31;99082.78;1727109;82;25552;-50
2023/11/29 02:02:55;;;;;;;57.65;24.07;;;;;;;-3.90;87.48;99084.13;1719775;82;25650;-49
2023/11/29 02:05:24;;;;;;;54.03;22.45;;;;;;;-3.88;87.62;99083.36;1718783;83;25476;-48
2023/11/29 02:07:53;;;;;;;51.28;21.75;;;;;;;-3.86;87.58;99083.94;1718561;83;27342;-48
2023/11/29 02:10:23;;;;;;;55.52;22.67;;;;;;;-3.85;87.44;99094.23;1718582;83;25703;-48
2023/11/29 02:12:52;;;;;;;52.38;20.77;;;;;;;-3.85;87.43;99089.48;1718624;83;25614;-49
2023/11/29 02:15:22;;;;;;;57.33;22.07;;;;;;;-3.86;87.37;99091.33;1689996;83;25575;-48
2023/11/29 02:17:51;;;;;;;;;;;;;;;-3.87;87.32;99088.41;1721197;83;25620;-48
2023/11/29 02:20:20;;;;;;;47.62;18.20;;;;;;;-3.85;87.47;99092.91;1718723;83;28287;-49
2023/11/29 02:23:23;;;;;;;47.15;19.20;;;;;;;-3.83;87.48;99093.50;1718727;83;25681;-48
2023/11/29 02:25:54;;;;;;;47.73;19.50;;;;;;;-3.82;87.48;99091.64;1718630;83;25459;-48
2023/11/29 02:28:23;;;;;;;53.63;20.00;;;;;;;-3.81;87.52;99091.41;1718619;83;25406;-48
2023/11/29 02:30:52;;;;;;;;;;;;;;;-3.79;87.59;99085.34;1721206;83;25629;-47
2023/11/29 02:33:22;;;;;;;49.00;18.52;;;;;;;-3.77;87.54;99087.22;1718724;83;32698;-48
2023/11/29 02:35:51;;;;;;;47.83;19.50;;;;;;;-3.80;87.34;99090.38;1718667;83;25451;-48
2023/11/29 02:38:21;;;;;;;;;;;;;;;-3.79;87.43;99093.80;1721165;83;25344;-48
2023/11/29 02:40:51;;;;;;;44.30;19.52;;;;;;;-3.80;87.44;99095.66;1718571;83;25513;-47
2023/11/29 02:43:20;;;;;;;;;;;;;;;-3.79;87.48;99091.95;1721222;83;25548;-47
2023/11/29 02:45:50;;;;;;;44.50;18.75;;;;;;;-3.76;87.64;99090.68;1718747;83;28153;-50
2023/11/29 02:48:19;;;;;;;44.25;18.95;;;;;;;-3.75;87.58;99089.62;1718632;83;25854;-48
2023/11/29 02:50:49;;;;;;;45.00;19.80;;;;;;;-3.75;87.52;99092.27;1718705;83;25772;-47
2023/11/29 02:53:18;;;;;;;43.38;18.55;;;;;;;-3.74;87.46;99099.69;1718571;83;25446;-48
2023/11/29 02:55:48;;;;;;;;;;;;;;;-3.75;87.35;99104.16;1721152;83;25432;-49
2023/11/29 02:58:17;;;;;;;40.03;17.37;;;;;;;-3.73;87.32;99104.70;1718857;83;28330;-48
2023/11/29 03:00:47;;;;;;;41.65;17.05;;;;;;;-3.74;87.29;99108.41;1718727;83;25485;-47
2023/11/29 03:03:17;;;;;;;39.00;16.62;;;;;;;-3.79;87.12;99104.38;1726048;83;25638;-47
2023/11/29 03:05:44;;;;;;;39.03;16.48;;;;;;;-3.79;87.10;99103.05;1727199;83;26260;-47
2023/11/29 03:08:14;;;;;;;34.98;15.53;;;;;;;-3.82;87.04;99100.89;1727344;83;25619;-47
2023/11/29 03:10:44;;;;;;;34.10;14.73;;;;;;;-3.85;86.71;99099.52;1727294;83;27328;-50
2023/11/29 03:13:13;;;;;;;37.05;15.88;;;;;;;-3.88;86.67;99096.07;1727169;82;25609;-50
2023/11/29 03:15:43;;;;;;;32.42;16.23;;;;;;;-3.91;86.75;99096.55;1727257;83;25619;-48
2023/11/29 03:18:12;;;;;;;37.33;15.38;;;;;;;-3.92;86.89;99101.54;1727329;83;25600;-48
2023/11/29 03:20:42;;;;;;;34.43;15.03;;;;;;;-3.91;86.93;99110.29;1727230;83;25620;-48
2023/11/29 03:23:13;;;;;;;35.78;15.13;;;;;;;-3.92;87.06;99110.00;1727241;83;27373;-49
2023/11/29 03:25:45;;;;;;;36.28;15.58;;;;;;;-3.91;87.16;99107.12;1727142;82;25827;-48
2023/11/29 03:28:14;;;;;;;31.20;14.83;;;;;;;-3.90;87.09;99102.09;1727243;83;25447;-49
2023/11/29 03:30:44;;;;;;;33.40;15.75;;;;;;;-3.90;87.11;99106.58;1701493;83;25670;-48
2023/11/29 03:33:15;;;;;;;33.55;14.98;;;;;;;-3.89;87.09;99110.31;1702219;83;25563;-48
2023/11/29 03:35:47;;;;;;;35.28;15.43;;;;;;;-3.92;87.03;99117.39;1727153;82;28254;-50
2023/11/29 03:38:16;;;;;;;33.55;15.05;;;;;;;-3.91;87.04;99115.57;1727138;83;25632;-49
2023/11/29 03:40:45;;;;;;;;;;;;;;;-3.95;86.91;99125.80;1729827;83;25603;-50
2023/11/29 03:43:15;;;;;;;32.10;14.65;;;;;;;-3.97;86.94;99125.25;1727275;83;25465;-48
2023/11/29 03:45:42;;;;;;;35.52;15.95;;;;;;;-4.00;87.12;99125.22;1727137;83;25592;-48
2023/11/29 03:48:08;;;;;;;34.40;16.07;;;;;;;-3.96;87.29;99124.22;1727133;83;27226;-48
2023/11/29 03:50:35;;;;;;;34.35;16.45;;;;;;;-3.97;87.14;99119.96;1727033;83;25611;-48
2023/11/29 03:53:03;;;;;;;43.63;18.10;;;;;;;-3.95;87.44;99128.44;1727246;83;25642;-49
2023/11/29 03:55:29;;;;;;;37.93;15.90;;;;;;;-3.94;87.39;99130.05;1727161;83;25945;-49
2023/11/29 03:58:01;;;;;;;38.48;16.60;;;;;;;-3.96;87.31;99131.61;1727266;83;25620;-48
2023/11/29 04:00:28;;;;;;;43.30;17.62;;;;;;;-3.97;87.23;99132.67;1727255;82;27463;-48
2023/11/29 04:02:59;;;;;;;42.70;17.40;;;;;;;-3.99;87.16;99137.91;1722000;83;25545;-48
2023/11/29 04:05:31;;;;;;;42.65;18.50;;;;;;;-3.99;87.24;99140.55;1718684;83;25623;-49
2023/11/29 04:08:02;;;;;;;44.98;18.60;;;;;;;-4.01;87.13;99142.10;1718632;83;25558;-48
2023/11/29 04:10:34;;;;;;;41.73;18.07;;;;;;;-4.02;87.15;99135.73;1718678;83;25652;-48
2023/11/29 04:13:06;;;;;;;47.90;19.50;;;;;;;-4.01;87.26;99138.67;1718689;83;27401;-48
2023/11/29 04:15:33;;;;;;;52.43;19.92;;;;;;;-4.00;87.31;99136.29;1718552;83;25831;-48
2023/11/29 04:17:59;;;;;;;50.35;20.57;;;;;;;-4.00;87.34;99132.33;1718618;83;25636;-48
2023/11/29 04:20:26;;;;;;;49.45;21.10;;;;;;;-4.03;86.87;99128.34;1718506;83;25648;-48
2023/11/29 04:22:52;;;;;;;51.73;21.33;;;;;;;-4.06;86.79;99131.98;1718674;83;25580;-49
2023/11/29 04:25:23;;;;;;;49.45;19.95;;;;;;;-4.07;86.77;99127.73;1718550;83;25819;-47
2023/11/29 04:27:50;;;;;;;46.25;19.42;;;;;;;-4.10;86.58;99129.03;1718534;83;25808;-48
2023/11/29 04:30:21;;;;;;;48.45;19.87;;;;;;;-4.14;86.29;99119.47;1718556;83;25604;-48
2023/11/29 04:32:50;;;;;;;44.18;18.77;;;;;;;-4.16;86.23;99104.89;1718598;83;25671;-47
2023/11/29 04:35:20;;;;;;;47.27;19.70;;;;;;;-4.20;86.04;99103.78;1718737;83;25565;-48
2023/11/29 04:37:49;;;;;;;46.65;20.30;;;;;;;-4.26;85.95;99113.45;1689406;83;27740;-47
2023/11/29 04:40:18;;;;;;;46.30;19.07;;;;;;;-4.30;86.00;99119.47;1718554;83;25395;-48
2023/11/29 04:42:52;;;;;;;51.50;19.82;;;;;;;-4.38;85.79;99128.05;1718552;83;25565;-48
2023/11/29 04:45:23;;;;;;;45.67;20.20;;;;;;;-4.46;85.83;99144.30;1718644;83;26017;-48
2023/11/29 04:47:50;;;;;;;50.10;19.60;;;;;;;-4.52;85.87;99144.71;1718540;83;25897;-47
2023/11/29 04:50:17;;;;;;;49.03;19.30;;;;;;;-4.57;86.03;99141.98;1718573;83;27415;-48
2023/11/29 04:52:43;;;;;;;53.08;20.65;;;;;;;-4.61;86.08;99139.55;1718493;83;25438;-47
2023/11/29 04:55:12;;;;;;;50.33;20.30;;;;;;;-4.66;86.09;99146.06;1718709;83;25536;-47
2023/11/29 04:57:41;;;;;;;47.08;18.90;;;;;;;-4.71;86.07;99138.84;1718528;83;25585;-47
2023/11/29 05:00:14;;;;;;;;;;;;;;;-4.76;86.13;99142.71;1721205;83;25657;-48
2023/11/29 05:02:43;;;;;;;52.90;19.73;;;;;;;-4.79;86.18;99141.06;1718541;83;28347;-48
2023/11/29 05:05:11;;;;;;;53.83;21.85;;;;;;;-4.86;86.17;99135.93;1718472;83;25499;-47
2023/11/29 05:07:40;;;;;;;51.40;20.97;;;;;;;-4.88;86.37;99144.08;1718538;83;25574;-48
2023/11/29 05:10:10;;;;;;;52.53;20.52;;;;;;;-4.92;86.35;99139.50;1718620;83;25933;-48
2023/11/29 05:12:37;;;;;;;52.33;23.42;;;;;;;-4.94;86.41;99141.58;1718597;83;25399;-48
2023/11/29 05:15:09;;;;;;;61.23;23.55;;;;;;;-4.98;86.44;99137.30;1718597;83;27454;-48
2023/11/29 05:17:39;;;;;;;64.58;25.55;;;;;;;-5.00;86.45;99143.85;1718560;83;25466;-50
2023/11/29 05:20:12;;;;;;;61.58;24.82;;;;;;;-5.02;86.64;99147.22;1718499;83;25611;-51
2023/11/29 05:22:44;;;;;;;59.77;23.65;;;;;;;-5.02;86.85;99149.86;1689920;83;25656;-48
2023/11/29 05:25:10;;;;;;;61.02;24.00;;;;;;;-5.03;86.89;99150.38;1718622;83;25561;-48
2023/11/29 05:27:44;;;;;;;65.55;27.10;;;;;;;-5.05;87.01;99145.86;1718702;83;27953;-50
2023/11/29 05:30:17;;;;;;;73.17;28.90;;;;;;;-5.05;87.09;99152.98;1718529;83;25434;-49
2023/11/29 05:32:44;;;;;;;83.62;31.00;;;;;;;-5.06;87.33;99150.84;1718601;83;25395;-48
2023/11/29 05:35:15;;;;;;;81.47;28.35;;;;;;;-5.04;87.72;99143.49;1718459;83;25459;-47
2023/11/29 05:37:47;;;;;;;72.00;26.15;;;;;;;-5.03;87.82;99145.11;1718540;83;25577;-48
2023/11/29 05:40:20;;;;;;;75.30;26.45;;;;;;;-5.00;87.87;99154.41;1718499;83;28333;-48
2023/11/29 05:42:45;;;;;;;66.60;25.60;;;;;;;-4.98;87.88;99154.96;1718239;83;25612;-48
2023/11/29 05:45:13;;;;;;;68.42;24.98;;;;;;;-4.98;87.81;99153.12;1718581;83;25442;-48
2023/11/29 05:47:42;;;;;;;68.97;25.82;;;;;;;-4.98;87.71;99157.07;1718624;83;25651;-49
2023/11/29 05:50:11;;;;;;;59.08;24.20;;;;;;;-4.98;87.78;99162.34;1718712;83;25634;-48
2023/11/29 05:52:39;;;;;;;64.37;24.85;;;;;;;-4.98;87.95;99166.83;1718670;83;27326;-49
2023/11/29 05:55:13;;;;;;;57.38;22.00;;;;;;;-4.99;88.04;99163.90;1718714;83;25622;-49
2023/11/29 05:57:44;;;;;;;61.48;23.38;;;;;;;-4.98;88.29;99174.74;1718633;83;25407;-50
2023/11/29 06:00:14;;;;;;;63.28;22.55;;;;;;;-4.96;88.44;99175.30;1716585;83;25534;-49
2023/11/29 06:02:41;;;;;;;60.28;22.50;;;;;;;-4.93;88.53;99179.59;1720196;83;25500;-48
2023/11/29 06:05:09;;;;;;;56.00;21.50;;;;;;;-4.91;88.60;99179.36;1727233;83;27423;-48
2023/11/29 06:07:39;;;;;;;55.83;21.03;;;;;;;-4.89;88.80;99179.92;1727206;82;25363;-48
2023/11/29 06:10:11;;;;;;;58.95;22.85;;;;;;;-4.85;88.90;99188.16;1727105;82;25606;-50
2023/11/29 06:12:38;;;;;;;58.20;21.12;;;;;;;-4.83;88.84;99186.91;1727055;83;25317;-50
2023/11/29 06:15:12;;;;;;;57.20;22.05;;;;;;;-4.80;88.96;99197.00;1727105;83;25740;-49
2023/11/29 06:17:42;;;;;;;58.78;23.00;;;;;;;-4.77;89.03;99200.46;1727074;83;27397;-48
2023/11/29 06:20:18;;;;;;;53.50;18.87;;;;;;;-4.74;89.13;99211.08;1727006;83;25777;-52
2023/11/29 06:22:44;;;;;;;52.40;18.75;;;;;;;-4.74;89.31;99203.95;1727055;83;25659;-48
2023/11/29 06:25:14;;;;;;;60.10;22.62;;;;;;;-4.68;89.38;99206.19;1726601;83;25754;-48
2023/11/29 06:27:40;;;;;;;68.42;24.85;;;;;;;-4.63;89.47;99206.29;1725652;83;25694;-49
2023/11/29 06:30:12;;;;;;;69.60;26.23;;;;;;;-4.59;89.61;99202.66;1725655;83;28319;-49
2023/11/29 06:32:41;;;;;;;72.20;25.82;;;;;;;-4.53;89.78;99205.66;1725755;83;26014;-49
2023/11/29 06:35:12;;;;;;;70.67;27.23;;;;;;;-4.50;89.66;99203.87;1726520;82;25632;-49
2023/11/29 06:37:37;;;;;;;70.50;26.48;;;;;;;-4.45;89.62;99213.73;1725793;82;26577;-50
2023/11/29 06:40:10;;;;;;;74.17;28.12;;;;;;;-4.42;89.65;99219.33;1725862;83;25954;-49
2023/11/29 06:42:40;;;;;;;79.47;29.52;;;;;;;-4.39;89.64;99210.95;1727242;83;27381;-48
2023/11/29 06:45:11;;;;;;;81.53;29.05;;;;;;;-4.35;89.77;99212.06;1727289;83;25439;-49
2023/11/29 06:47:40;;;;;;;79.87;29.15;;;;;;;-4.33;89.70;99207.34;1726539;83;25467;-52
2023/11/29 06:50:13;;;;;;;77.62;28.98;;;;;;;-4.29;89.74;99201.09;1727279;83;25567;-50
2023/11/29 06:52:42;;;;;;;82.42;28.35;;;;;;;-4.24;89.90;99206.45;1727301;83;25587;-50
2023/11/29 06:55:12;;;;;;;82.82;29.45;;;;;;;-4.22;89.82;99210.97;1727316;82;27529;-49
2023/11/29 06:57:40;;;;;;;79.58;30.00;;;;;;;-4.20;89.76;99206.25;1727180;83;27202;-49
2023/11/29 07:00:16;;;;;;;86.40;29.65;;;;;;;-4.18;89.76;99209.45;1727131;83;25688;-48
2023/11/29 07:02:44;;;;;;;74.03;29.18;;;;;;;-4.16;89.71;99215.28;1727196;83;25634;-52
2023/11/29 07:05:17;;;;;;;73.07;28.75;;;;;;;-4.11;89.82;99214.58;1727219;83;25601;-52
2023/11/29 07:07:47;;;;;;;74.40;28.60;;;;;;;-4.09;89.81;99216.98;1727187;83;27772;-49
2023/11/29 07:10:18;;;;;;;75.67;29.25;;;;;;;-4.03;89.82;99226.61;1727134;82;26049;-49
2023/11/29 07:12:45;;;;;;;72.05;27.73;;;;;;;-3.99;89.72;99234.33;1727201;83;25589;-51
2023/11/29 07:15:14;;;;;;;74.35;27.20;;;;;;;-3.96;89.61;99235.97;1727191;83;25661;-49
2023/11/29 07:17:41;;;;;;;79.72;29.12;;;;;;;-3.94;89.51;99240.48;1727300;83;25591;-50
2023/11/29 07:20:13;;;;;;;68.87;26.20;;;;;;;-3.89;89.58;99237.66;1727100;83;27327;-49
2023/11/29 07:22:47;;;;;;;66.25;26.30;;;;;;;-3.89;89.52;99235.02;1727070;82;25571;-47
2023/11/29 07:25:16;;;;;;;62.35;25.80;;;;;;;-3.84;89.36;99251.75;1727182;82;25629;-49
2023/11/29 07:27:43;;;;;;;70.40;27.48;;;;;;;-3.82;89.54;99254.95;1727257;83;25942;-50
2023/11/29 07:30:16;;;;;;;64.15;26.10;;;;;;;-3.74;89.64;99260.90;1727252;82;25454;-51
2023/11/29 07:32:43;;;;;;;54.55;21.65;;;;;;;-3.71;89.43;99261.72;1727205;83;28246;-49
2023/11/29 07:35:17;;;;;;;55.63;21.87;;;;;;;-3.70;89.33;99262.80;1726162;83;25855;-50
2023/11/29 07:37:50;;;;;;;59.88;22.65;;;;;;;-3.67;89.51;99267.61;1727233;83;25386;-49
2023/11/29 07:40:22;;;;;;;52.70;22.02;;;;;;;-3.68;89.17;99263.88;1727293;83;25611;-50
2023/11/29 07:42:49;;;;;;;55.17;22.22;;;;;;;-3.66;89.08;99270.55;1727173;83;25555;-50
2023/11/29 07:45:15;;;;;;;57.15;22.98;;;;;;;-3.66;89.16;99269.23;1701848;83;27240;-51
2023/11/29 07:47:45;;;;;;;;;;;;;;;-3.57;89.62;99265.66;1729639;83;25633;-49
2023/11/29 07:50:15;;;;;;;53.05;22.52;;;;;;;-3.54;89.47;99270.47;1727139;83;25684;-49
2023/11/29 07:52:45;;;;;;;54.42;24.27;;;;;;;-3.49;89.57;99277.16;1727106;83;25482;-51
2023/11/29 07:55:12;;;;;;;56.25;21.62;;;;;;;-3.46;89.34;99277.18;1702024;83;25570;-51
2023/11/29 07:57:41;;;;;;;50.17;21.30;;;;;;;-3.47;89.05;99279.03;1701142;83;27911;-50
2023/11/29 08:00:15;;;;;;;54.33;21.75;;;;;;;-3.46;89.06;99277.18;1726667;83;25634;-49
2023/11/29 08:02:45;;;;;;;49.60;21.05;;;;;;;-3.42;89.21;99278.31;1727205;83;25395;-50
2023/11/29 08:05:15;;;;;;;49.23;21.70;;;;;;;-3.35;89.40;99271.02;1727184;83;25618;-48
2023/11/29 08:07:43;;;;;;;47.90;20.20;;;;;;;-3.31;89.33;99277.41;1727166;83;25679;-55
2023/11/29 08:10:18;;;;;;;50.60;22.98;;;;;;;-3.25;89.51;99275.63;1727142;83;27914;-48
2023/11/29 08:12:46;;;;;;;46.92;19.98;;;;;;;-3.21;89.18;99287.34;1727058;83;25966;-51
2023/11/29 08:15:16;;;;;;;48.48;22.98;;;;;;;-3.24;88.65;99293.91;1727187;83;25546;-49
2023/11/29 08:17:42;;;;;;;51.45;21.77;;;;;;;-3.25;88.42;99294.97;1727249;83;25610;-51
2023/11/29 08:20:15;;;;;;;54.15;22.30;;;;;;;-3.22;88.58;99291.84;1727264;83;25550;-48
2023/11/29 08:22:44;;;;;;;44.70;20.82;;;;;;;-3.20;88.38;99300.86;1727138;83;28336;-47
2023/11/29 08:25:20;;;;;;;45.35;20.50;;;;;;;-3.20;88.22;99291.08;1727053;83;25529;-48
2023/11/29 08:27:50;;;;;;;55.08;22.07;;;;;;;-3.21;88.09;99306.66;1727144;82;25200;-48
2023/11/29 08:30:18;;;;;;;51.42;21.37;;;;;;;-3.20;88.18;99303.51;1727151;83;26298;-48
2023/11/29 08:32:52;;;;;;;58.63;22.60;;;;;;;-3.21;87.88;99309.83;1727159;83;25608;-50
2023/11/29 08:35:25;;;;;;;50.25;21.70;;;;;;;-3.21;87.69;99319.09;1727248;82;28329;-49
2023/11/29 08:37:58;;;;;;;51.83;21.50;;;;;;;-3.23;87.81;99307.42;1727145;83;25899;-49
2023/11/29 08:40:25;;;;;;;55.50;21.52;;;;;;;-3.20;88.00;99299.01;1727198;83;25548;-49
2023/11/29 08:42:57;;;;;;;47.40;19.05;;;;;;;-3.15;88.03;99299.61;1727092;83;26001;-52
2023/11/29 08:45:24;;;;;;;51.28;21.70;;;;;;;-3.12;88.04;99311.53;1727166;83;25468;-52
2023/11/29 08:47:56;;;;;;;47.83;21.82;;;;;;;-3.11;88.06;99311.83;1727254;83;27378;-48
2023/11/29 08:50:31;;;;;;;48.20;20.75;;;;;;;-3.09;88.03;99308.41;1727082;83;25442;-48
2023/11/29 08:52:58;;;;;;;44.10;20.25;;;;;;;-3.05;87.89;99316.13;1727186;83;25540;-50
2023/11/29 08:55:35;;;;;;;41.33;18.77;;;;;;;-3.04;87.85;99315.09;1727225;83;25681;-50
2023/11/29 08:58:03;;;;;;;48.92;21.05;;;;;;;-3.08;87.32;99310.82;1726988;83;25600;-48
2023/11/29 09:00:41;;;;;;;42.73;18.02;;;;;;;-3.11;87.25;99304.69;1727159;83;27322;-50
2023/11/29 09:03:12;;;;;;;42.48;16.97;;;;;;;-3.07;87.15;99311.61;1726990;82;25592;-51
2023/11/29 09:05:45;;;;;;;35.80;17.20;;;;;;;-3.06;86.84;99309.25;1719090;83;25790;-52
2023/11/29 09:08:18;;;;;;;43.45;19.52;;;;;;;-3.10;86.96;99302.83;1718571;83;25471;-50
2023/11/29 09:10:51;;;;;;;39.92;18.17;;;;;;;-3.08;86.59;99300.73;1718645;83;25416;-49
2023/11/29 09:13:20;;;;;;;36.98;18.00;;;;;;;-3.07;86.98;99307.11;1718569;83;27721;-54
2023/11/29 09:15:55;;;;;;;40.50;18.05;;;;;;;-3.00;87.34;99300.33;1718571;83;25383;-48
2023/11/29 09:18:28;;;;;;;42.80;19.92;;;;;;;-2.98;86.98;99298.77;1718641;83;25445;-52
2023/11/29 09:21:02;;;;;;;46.48;20.00;;;;;;;-2.97;87.12;99305.14;1718499;83;25957;-49
2023/11/29 09:23:29;;;;;;;44.48;21.57;;;;;;;-3.01;86.79;99299.53;1718691;83;25438;-49
2023/11/29 09:25:55;;;;;;;45.85;19.40;;;;;;;-3.00;86.89;99300.33;1718588;83;27697;-48
2023/11/29 09:28:26;;;;;;;41.18;19.32;;;;;;;-2.96;87.20;99296.67;1718435;83;25553;-49
2023/11/29 09:30:53;;;;;;;43.70;20.62;;;;;;;-2.91;86.96;99303.35;1718613;83;25582;-51
2023/11/29 09:33:22;;;;;;;45.05;20.12;;;;;;;-2.92;86.62;99297.27;1718695;83;32437;-49
2023/11/29 09:35:56;;;;;;;44.45;20.23;;;;;;;-2.96;86.48;99292.20;1718598;83;25824;-49
2023/11/29 09:38:29;;;;;;;40.45;17.67;;;;;;;-2.99;86.38;99294.00;1718658;83;27323;-51
2023/11/29 09:40:58;;;;;;;43.55;19.37;;;;;;;-3.01;86.42;99292.92;1718491;83;25486;-54
2023/11/29 09:43:31;;;;;;;45.28;18.67;;;;;;;-3.00;86.81;99291.06;1718605;83;25599;-52
2023/11/29 09:45:59;;;;;;;37.67;17.05;;;;;;;-2.87;87.43;99295.22;1718599;83;25616;-50
2023/11/29 09:48:33;;;;;;;43.38;17.60;;;;;;;-2.82;86.46;99290.78;1718629;83;25581;-48
2023/11/29 09:51:05;;;;;;;39.70;18.62;;;;;;;-2.78;86.69;99298.24;1718559;83;28432;-52
2023/11/29 09:53:35;;;;;;;45.65;19.42;;;;;;;-2.65;87.17;99296.56;1718516;83;25578;-53
2023/11/29 09:56:10;;;;;;;44.40;19.07;;;;;;;-2.56;86.96;99294.28;1718592;83;25660;-48
2023/11/29 09:58:42;;;;;;;43.30;18.35;;;;;;;-2.43;86.77;99292.59;1718617;83;25573;-50
2023/11/29 10:01:15;;;;;;;44.05;19.45;;;;;;;-2.30;86.68;99291.39;1718504;83;25451;-50
2023/11/29 10:03:47;;;;;;;42.40;18.27;;;;;;;-2.18;86.68;99298.70;1718659;83;28342;-50
2023/11/29 10:06:20;;;;;;;41.73;17.17;;;;;;;-2.01;86.15;99299.11;1724678;83;26218;-49
2023/11/29 10:08:50;;;;;;;41.08;17.98;;;;;;;-1.79;85.83;99297.19;1727338;83;25527;-49
2023/11/29 10:11:20;;;;;;;45.38;17.90;;;;;;;-1.77;84.91;99298.27;1727212;83;25755;-50
2023/11/29 10:13:52;;;;;;;39.88;17.87;;;;;;;-1.63;85.39;99302.13;1727290;83;25549;-55
2023/11/29 10:16:29;;;;;;;46.68;19.70;;;;;;;-1.58;84.85;99300.05;1727229;83;27315;-50
2023/11/29 10:19:02;;;;;;;44.08;19.82;;;;;;;-1.55;84.43;99293.70;1727234;83;25584;-50
2023/11/29 10:21:35;;;;;;;44.83;18.85;;;;;;;-1.56;84.15;99297.94;1727220;82;25559;-51
2023/11/29 10:24:08;;;;;;;52.35;20.62;;;;;;;-1.53;84.04;99298.77;1727188;83;26070;-52
2023/11/29 10:26:35;;;;;;;55.83;22.65;;;;;;;-1.45;84.08;99301.45;1727316;83;25408;-50
2023/11/29 10:29:09;;;;;;;53.25;23.05;;;;;;;-1.25;84.79;99306.91;1727276;83;27697;-51
2023/11/29 10:31:43;;;;;;;48.68;21.42;;;;;;;-1.04;84.63;99306.54;1727190;83;25559;-50
2023/11/29 10:34:11;;;;;;;49.05;20.82;;;;;;;-0.46;87.18;99303.08;1724190;83;25401;-51
2023/11/29 10:36:41;;;;;;;48.28;20.32;;;;;;;-0.21;85.02;99303.70;1727190;83;26032;-50
2023/11/29 10:39:18;;;;;;;39.63;17.62;;;;;;;-0.28;81.93;99303.16;1727233;83;25571;-50
2023/11/29 10:41:57;;;;;;;41.13;19.27;;;;;;;-0.32;81.36;99306.87;1727262;83;27904;-50
2023/11/29 10:44:43;;;;;;;41.53;18.93;;;;;;;-0.57;79.47;99313.66;1727408;83;25455;-51
2023/11/29 10:47:41;;;;;;;42.80;19.62;;;;;;;-0.78;79.27;99306.68;1727281;83;25584;-50
2023/11/29 10:50:14;;;;;;;44.90;19.77;;;;;;;-0.89;79.75;99313.77;1727150;83;25972;-49
2023/11/29 10:52:41;;;;;;;44.65;18.77;;;;;;;-1.00;79.35;99317.44;1727145;83;25892;-50
2023/11/29 10:55:14;;;;;;;39.48;17.35;;;;;;;-1.09;79.55;99323.76;1727232;82;27419;-52
2023/11/29 10:58:09;;;;;;;40.28;17.12;;;;;;;-1.13;79.68;99319.46;1727194;83;26026;-50
2023/11/29 11:00:40;;;;;;;40.12;17.12;;;;;;;-1.22;79.24;99326.84;1727286;83;25529;-50
2023/11/29 11:03:11;;;;;;;45.08;20.17;;;;;;;-1.33;79.06;99320.14;1701820;83;25963;-48
2023/11/29 11:05:38;;;;;;;54.27;20.55;;;;;;;-1.37;79.77;99315.05;1721838;82;25616;-49
2023/11/29 11:08:04;;;;;;;46.85;21.73;;;;;;;-1.36;79.95;99315.34;1718556;83;26815;-51
2023/11/29 11:10:33;;;;;;;41.92;19.70;;;;;;;-1.38;80.11;99316.13;1718586;83;25372;-52
2023/11/29 11:13:02;;;;;;;48.38;22.07;;;;;;;-1.38;80.19;99317.95;1689877;83;25654;-51
2023/11/29 11:15:33;;;;;;;44.05;19.62;;;;;;;-1.40;80.43;99308.13;1718668;83;27123;-50
2023/11/29 11:18:08;;;;;;;46.63;18.48;;;;;;;-1.39;80.11;99307.09;1718660;83;25415;-50
2023/11/29 11:20:44;;;;;;;43.55;19.62;;;;;;;-1.43;80.15;99305.97;1718725;83;27183;-49
2023/11/29 11:23:22;;;;;;;43.45;19.40;;;;;;;-1.44;80.46;99305.72;1717987;83;25774;-50
2023/11/29 11:25:58;;;;;;;46.68;20.23;;;;;;;-1.48;80.34;99307.27;1718576;83;25458;-52
2023/11/29 11:28:37;;;;;;;65.57;29.80;;;;;;;-1.49;80.30;99310.45;1718548;83;25633;-49
2023/11/29 11:31:12;;;;;;;676.70;456.20;;;;;;;-1.52;80.51;99315.72;1718862;83;25645;-49
2023/11/29 11:33:56;;;;;;;96.90;48.10;;;;;;;-1.49;80.72;99310.45;1718744;83;27411;-50